sensor_id;sensor_type;location;lat;lon;timestamp;P1;durP1;ratioP1;P2;durP2;ratioP2
63900;SDS011;50538;53.482;10.294;2023-03-05T00:08:31;4.53;;;0.22;;
63900;SDS011;50538;53.482;10.294;2023-03-05T00:18:32;1.30;;;0.38;;
63900;SDS011;50538;53.482;10.294;2023-03-05T00:28:32;0.93;;;0.50;;
63900;SDS011;50538;53.482;10.294;2023-03-05T00:38:33;1.23;;;0.40;;
63900;SDS011;50538;53.482;10.294;2023-03-05T00:48:34;0.90;;;0.35;;
63900;SDS011;50538;53.482;10.294;2023-03-05T00:58:34;1.60;;;0.28;;
63900;SDS011;50538;53.482;10.294;2023-03-05T01:08:35;1.92;;;0.32;;
63900;SDS011;50538;53.482;10.294;2023-03-05T01:18:36;2.88;;;0.60;;
63900;SDS011;50538;53.482;10.294;2023-03-05T01:28:38;0.68;;;0.25;;
63900;SDS011;50538;53.482;10.294;2023-03-05T01:38:39;0.60;;;0.25;;
63900;SDS011;50538;53.482;10.294;2023-03-05T01:48:41;1.92;;;0.63;;
63900;SDS011;50538;53.482;10.294;2023-03-05T01:58:43;4.72;;;0.73;;
63900;SDS011;50538;53.482;10.294;2023-03-05T02:08:44;2.92;;;0.43;;
63900;SDS011;50538;53.482;10.294;2023-03-05T02:18:44;0.65;;;0.38;;
63900;SDS011;50538;53.482;10.294;2023-03-05T02:28:46;2.35;;;0.55;;
63900;SDS011;50538;53.482;10.294;2023-03-05T02:38:50;3.23;;;0.90;;
63900;SDS011;50538;53.482;10.294;2023-03-05T02:48:51;0.85;;;0.65;;
63900;SDS011;50538;53.482;10.294;2023-03-05T02:58:52;2.38;;;0.70;;
63900;SDS011;50538;53.482;10.294;2023-03-05T03:08:52;1.70;;;0.40;;
63900;SDS011;50538;53.482;10.294;2023-03-05T03:18:52;1.60;;;0.60;;
63900;SDS011;50538;53.482;10.294;2023-03-05T03:28:53;1.55;;;0.40;;
63900;SDS011;50538;53.482;10.294;2023-03-05T03:38:53;0.82;;;0.40;;
63900;SDS011;50538;53.482;10.294;2023-03-05T03:48:53;1.98;;;0.50;;
63900;SDS011;50538;53.482;10.294;2023-03-05T03:58:54;4.47;;;0.90;;
63900;SDS011;50538;53.482;10.294;2023-03-05T04:08:54;1.10;;;0.60;;
63900;SDS011;50538;53.482;10.294;2023-03-05T04:18:55;2.38;;;0.63;;
63900;SDS011;50538;53.482;10.294;2023-03-05T04:28:55;0.75;;;0.60;;
63900;SDS011;50538;53.482;10.294;2023-03-05T04:38:55;1.23;;;0.68;;
63900;SDS011;50538;53.482;10.294;2023-03-05T04:48:56;2.95;;;1.13;;
63900;SDS011;50538;53.482;10.294;2023-03-05T04:58:57;2.85;;;0.98;;
63900;SDS011;50538;53.482;10.294;2023-03-05T05:08:58;1.55;;;0.57;;
63900;SDS011;50538;53.482;10.294;2023-03-05T05:18:58;3.33;;;1.05;;
63900;SDS011;50538;53.482;10.294;2023-03-05T05:28:59;0.38;;;0.30;;
63900;SDS011;50538;53.482;10.294;2023-03-05T05:38:59;5.93;;;0.70;;
63900;SDS011;50538;53.482;10.294;2023-03-05T05:48:59;1.38;;;0.82;;
63900;SDS011;50538;53.482;10.294;2023-03-05T05:59:00;3.08;;;0.95;;
63900;SDS011;50538;53.482;10.294;2023-03-05T06:09:00;7.57;;;1.40;;
63900;SDS011;50538;53.482;10.294;2023-03-05T06:19:01;0.60;;;0.60;;
63900;SDS011;50538;53.482;10.294;2023-03-05T06:29:03;0.35;;;0.32;;
63900;SDS011;50538;53.482;10.294;2023-03-05T06:39:03;2.67;;;0.90;;
63900;SDS011;50538;53.482;10.294;2023-03-05T06:49:04;0.30;;;0.30;;
63900;SDS011;50538;53.482;10.294;2023-03-05T06:59:06;0.93;;;0.45;;
63900;SDS011;50538;53.482;10.294;2023-03-05T07:09:07;0.93;;;0.55;;
63900;SDS011;50538;53.482;10.294;2023-03-05T07:19:09;2.50;;;0.60;;
63900;SDS011;50538;53.482;10.294;2023-03-05T07:29:10;1.50;;;0.50;;
63900;SDS011;50538;53.482;10.294;2023-03-05T07:39:11;1.02;;;0.57;;
63900;SDS011;50538;53.482;10.294;2023-03-05T07:49:12;1.45;;;0.80;;
63900;SDS011;50538;53.482;10.294;2023-03-05T07:59:12;7.00;;;1.10;;
63900;SDS011;50538;53.482;10.294;2023-03-05T08:09:12;6.95;;;1.27;;
63900;SDS011;50538;53.482;10.294;2023-03-05T08:19:13;0.40;;;0.35;;
63900;SDS011;50538;53.482;10.294;2023-03-05T08:29:21;3.22;;;0.47;;
63900;SDS011;50538;53.482;10.294;2023-03-05T08:39:22;0.40;;;0.40;;
63900;SDS011;50538;53.482;10.294;2023-03-05T08:49:22;0.52;;;0.32;;
63900;SDS011;50538;53.482;10.294;2023-03-05T08:59:23;0.90;;;0.35;;
63900;SDS011;50538;53.482;10.294;2023-03-05T09:09:35;1.75;;;0.60;;
63900;SDS011;50538;53.482;10.294;2023-03-05T09:19:36;0.90;;;0.30;;
63900;SDS011;50538;53.482;10.294;2023-03-05T09:29:36;3.35;;;0.60;;
63900;SDS011;50538;53.482;10.294;2023-03-05T09:39:37;0.55;;;0.20;;
63900;SDS011;50538;53.482;10.294;2023-03-05T10:11:00;1.37;;;0.57;;
63900;SDS011;50538;53.482;10.294;2023-03-05T10:21:15;0.98;;;0.45;;
63900;SDS011;50538;53.482;10.294;2023-03-05T10:52:06;1.55;;;0.30;;
63900;SDS011;50538;53.482;10.294;2023-03-05T11:02:15;0.82;;;0.40;;
63900;SDS011;50538;53.482;10.294;2023-03-05T11:12:47;1.35;;;0.25;;
63900;SDS011;50538;53.482;10.294;2023-03-05T11:33:13;1.55;;;0.80;;
63900;SDS011;50538;53.482;10.294;2023-03-05T11:43:16;2.15;;;0.75;;
63900;SDS011;50538;53.482;10.294;2023-03-05T12:04:18;0.10;;;0.10;;
63900;SDS011;50538;53.482;10.294;2023-03-05T12:47:37;2.67;;;0.65;;
63900;SDS011;50538;53.482;10.294;2023-03-05T12:57:45;0.60;;;0.43;;
63900;SDS011;50538;53.482;10.294;2023-03-05T13:07:49;3.77;;;0.73;;
63900;SDS011;50538;53.482;10.294;2023-03-05T13:17:55;1.02;;;0.32;;
63900;SDS011;50538;53.482;10.294;2023-03-05T13:28:04;2.60;;;0.32;;
63900;SDS011;50538;53.482;10.294;2023-03-05T13:38:20;2.95;;;0.40;;
63900;SDS011;50538;53.482;10.294;2023-03-05T13:48:26;1.42;;;0.40;;
63900;SDS011;50538;53.482;10.294;2023-03-05T13:58:42;1.20;;;0.20;;
63900;SDS011;50538;53.482;10.294;2023-03-05T14:08:51;0.82;;;0.28;;
63900;SDS011;50538;53.482;10.294;2023-03-05T14:18:54;0.15;;;0.15;;
63900;SDS011;50538;53.482;10.294;2023-03-05T14:39:05;0.30;;;0.10;;
63900;SDS011;50538;53.482;10.294;2023-03-05T14:49:07;0.65;;;0.38;;
63900;SDS011;50538;53.482;10.294;2023-03-05T14:59:10;1.88;;;0.35;;
63900;SDS011;50538;53.482;10.294;2023-03-05T15:09:10;0.80;;;0.40;;
63900;SDS011;50538;53.482;10.294;2023-03-05T15:19:11;2.08;;;0.20;;
63900;SDS011;50538;53.482;10.294;2023-03-05T15:29:12;3.03;;;0.30;;
63900;SDS011;50538;53.482;10.294;2023-03-05T15:39:12;1.67;;;0.30;;
63900;SDS011;50538;53.482;10.294;2023-03-05T15:49:15;0.30;;;0.10;;
63900;SDS011;50538;53.482;10.294;2023-03-05T15:59:20;0.40;;;0.37;;
63900;SDS011;50538;53.482;10.294;2023-03-05T16:09:20;0.77;;;0.32;;
63900;SDS011;50538;53.482;10.294;2023-03-05T16:19:22;0.30;;;0.25;;
63900;SDS011;50538;53.482;10.294;2023-03-05T16:29:47;0.57;;;0.38;;
63900;SDS011;50538;53.482;10.294;2023-03-05T16:40:11;0.43;;;0.40;;
63900;SDS011;50538;53.482;10.294;2023-03-05T16:50:24;3.53;;;0.60;;
63900;SDS011;50538;53.482;10.294;2023-03-05T17:00:31;1.05;;;0.35;;
63900;SDS011;50538;53.482;10.294;2023-03-05T17:10:49;2.13;;;0.77;;
63900;SDS011;50538;53.482;10.294;2023-03-05T17:20:50;1.83;;;0.40;;
63900;SDS011;50538;53.482;10.294;2023-03-05T17:30:51;2.90;;;0.70;;
63900;SDS011;50538;53.482;10.294;2023-03-05T17:40:51;3.35;;;0.50;;
63900;SDS011;50538;53.482;10.294;2023-03-05T17:50:52;0.10;;;0.10;;
63900;SDS011;50538;53.482;10.294;2023-03-05T18:00:53;1.27;;;0.50;;
63900;SDS011;50538;53.482;10.294;2023-03-05T18:10:53;1.45;;;0.47;;
63900;SDS011;50538;53.482;10.294;2023-03-05T18:20:54;0.60;;;0.10;;
63900;SDS011;50538;53.482;10.294;2023-03-05T18:30:55;0.82;;;0.40;;
63900;SDS011;50538;53.482;10.294;2023-03-05T18:40:55;0.50;;;0.47;;
63900;SDS011;50538;53.482;10.294;2023-03-05T18:50:56;1.95;;;0.57;;
63900;SDS011;50538;53.482;10.294;2023-03-05T19:00:56;0.73;;;0.43;;
63900;SDS011;50538;53.482;10.294;2023-03-05T19:10:57;1.50;;;0.50;;
63900;SDS011;50538;53.482;10.294;2023-03-05T19:20:57;1.70;;;0.88;;
63900;SDS011;50538;53.482;10.294;2023-03-05T19:30:57;2.55;;;1.35;;
63900;SDS011;50538;53.482;10.294;2023-03-05T19:40:58;2.67;;;1.65;;
63900;SDS011;50538;53.482;10.294;2023-03-05T19:50:58;3.65;;;1.33;;
63900;SDS011;50538;53.482;10.294;2023-03-05T20:11:22;2.65;;;1.30;;
63900;SDS011;50538;53.482;10.294;2023-03-05T20:21:27;3.53;;;1.77;;
63900;SDS011;50538;53.482;10.294;2023-03-05T20:31:33;2.65;;;1.45;;
63900;SDS011;50538;53.482;10.294;2023-03-05T20:41:36;3.83;;;1.63;;
63900;SDS011;50538;53.482;10.294;2023-03-05T20:51:38;3.63;;;1.17;;
63900;SDS011;50538;53.482;10.294;2023-03-05T21:01:39;3.67;;;1.20;;
63900;SDS011;50538;53.482;10.294;2023-03-05T21:11:42;2.97;;;1.45;;
63900;SDS011;50538;53.482;10.294;2023-03-05T21:21:42;3.97;;;1.75;;
63900;SDS011;50538;53.482;10.294;2023-03-05T21:31:44;3.47;;;1.23;;
63900;SDS011;50538;53.482;10.294;2023-03-05T21:41:45;3.25;;;1.30;;
63900;SDS011;50538;53.482;10.294;2023-03-05T22:02:21;5.43;;;1.40;;
63900;SDS011;50538;53.482;10.294;2023-03-05T22:23:11;4.85;;;2.00;;
63900;SDS011;50538;53.482;10.294;2023-03-05T22:33:12;4.15;;;1.85;;
63900;SDS011;50538;53.482;10.294;2023-03-05T22:43:12;3.40;;;1.17;;
63900;SDS011;50538;53.482;10.294;2023-03-05T22:53:13;3.63;;;1.48;;
63900;SDS011;50538;53.482;10.294;2023-03-05T23:03:14;4.03;;;1.10;;
63900;SDS011;50538;53.482;10.294;2023-03-05T23:13:14;3.60;;;1.45;;
63900;SDS011;50538;53.482;10.294;2023-03-05T23:23:15;3.00;;;1.73;;
63900;SDS011;50538;53.482;10.294;2023-03-05T23:33:20;2.08;;;1.23;;
63900;SDS011;50538;53.482;10.294;2023-03-05T23:43:22;3.17;;;1.63;;
63900;SDS011;50538;53.482;10.294;2023-03-05T23:53:24;3.55;;;1.63;;
